sensor_id;sensor_type;location;lat;lon;timestamp;P1;durP1;ratioP1;P2;durP2;ratioP2
12118;SDS011;6123;48.864;9.200;2024-03-08T00:00:10;15.52;;;14.10;;
12118;SDS011;6123;48.864;9.200;2024-03-08T00:02:40;15.20;;;13.70;;
12118;SDS011;6123;48.864;9.200;2024-03-08T00:05:07;15.15;;;13.75;;
12118;SDS011;6123;48.864;9.200;2024-03-08T00:07:37;15.10;;;13.60;;
12118;SDS011;6123;48.864;9.200;2024-03-08T00:10:03;15.90;;;14.30;;
12118;SDS011;6123;48.864;9.200;2024-03-08T00:12:30;15.65;;;14.05;;
12118;SDS011;6123;48.864;9.200;2024-03-08T00:14:55;15.43;;;13.93;;
12118;SDS011;6123;48.864;9.200;2024-03-08T00:17:21;15.15;;;13.60;;
12118;SDS011;6123;48.864;9.200;2024-03-08T00:19:50;15.38;;;13.85;;
12118;SDS011;6123;48.864;9.200;2024-03-08T00:22:16;14.38;;;12.95;;
12118;SDS011;6123;48.864;9.200;2024-03-08T00:24:42;14.68;;;13.25;;
12118;SDS011;6123;48.864;9.200;2024-03-08T00:27:08;15.10;;;13.52;;
12118;SDS011;6123;48.864;9.200;2024-03-08T00:29:34;14.32;;;12.93;;
12118;SDS011;6123;48.864;9.200;2024-03-08T00:32:00;14.90;;;13.45;;
12118;SDS011;6123;48.864;9.200;2024-03-08T00:34:26;15.07;;;13.57;;
12118;SDS011;6123;48.864;9.200;2024-03-08T00:36:51;15.65;;;14.15;;
12118;SDS011;6123;48.864;9.200;2024-03-08T00:39:17;14.88;;;13.48;;
12118;SDS011;6123;48.864;9.200;2024-03-08T00:41:45;15.00;;;13.50;;
12118;SDS011;6123;48.864;9.200;2024-03-08T00:44:11;15.70;;;14.10;;
12118;SDS011;6123;48.864;9.200;2024-03-08T00:46:37;15.18;;;13.73;;
12118;SDS011;6123;48.864;9.200;2024-03-08T00:49:03;15.73;;;14.23;;
12118;SDS011;6123;48.864;9.200;2024-03-08T00:51:28;15.27;;;13.77;;
12118;SDS011;6123;48.864;9.200;2024-03-08T00:53:54;16.10;;;14.57;;
12118;SDS011;6123;48.864;9.200;2024-03-08T00:56:19;15.68;;;14.07;;
12118;SDS011;6123;48.864;9.200;2024-03-08T00:58:45;16.52;;;13.45;;
12118;SDS011;6123;48.864;9.200;2024-03-08T01:01:12;15.23;;;13.73;;
12118;SDS011;6123;48.864;9.200;2024-03-08T01:03:42;15.32;;;13.80;;
12118;SDS011;6123;48.864;9.200;2024-03-08T01:06:08;14.63;;;13.23;;
12118;SDS011;6123;48.864;9.200;2024-03-08T01:08:34;15.23;;;13.63;;
12118;SDS011;6123;48.864;9.200;2024-03-08T01:10:59;15.65;;;14.10;;
12118;SDS011;6123;48.864;9.200;2024-03-08T01:13:25;14.65;;;13.15;;
12118;SDS011;6123;48.864;9.200;2024-03-08T01:15:51;16.00;;;14.07;;
12118;SDS011;6123;48.864;9.200;2024-03-08T01:18:16;15.73;;;14.13;;
12118;SDS011;6123;48.864;9.200;2024-03-08T01:20:42;15.52;;;13.80;;
12118;SDS011;6123;48.864;9.200;2024-03-08T01:23:07;15.70;;;14.10;;
12118;SDS011;6123;48.864;9.200;2024-03-08T01:25:33;15.57;;;13.25;;
12118;SDS011;6123;48.864;9.200;2024-03-08T01:27:59;15.07;;;13.68;;
12118;SDS011;6123;48.864;9.200;2024-03-08T01:30:24;14.73;;;13.32;;
12118;SDS011;6123;48.864;9.200;2024-03-08T01:32:50;15.15;;;13.63;;
12118;SDS011;6123;48.864;9.200;2024-03-08T01:35:15;15.70;;;14.10;;
12118;SDS011;6123;48.864;9.200;2024-03-08T01:37:41;15.15;;;13.63;;
12118;SDS011;6123;48.864;9.200;2024-03-08T01:40:07;14.60;;;13.10;;
12118;SDS011;6123;48.864;9.200;2024-03-08T01:42:33;14.70;;;13.13;;
12118;SDS011;6123;48.864;9.200;2024-03-08T01:45:02;15.55;;;14.02;;
12118;SDS011;6123;48.864;9.200;2024-03-08T01:47:31;16.02;;;14.32;;
12118;SDS011;6123;48.864;9.200;2024-03-08T01:49:58;15.55;;;14.05;;
12118;SDS011;6123;48.864;9.200;2024-03-08T01:52:26;17.70;;;14.40;;
12118;SDS011;6123;48.864;9.200;2024-03-08T01:54:53;15.77;;;14.00;;
12118;SDS011;6123;48.864;9.200;2024-03-08T01:57:19;16.77;;;13.85;;
12118;SDS011;6123;48.864;9.200;2024-03-08T01:59:46;16.00;;;14.35;;
12118;SDS011;6123;48.864;9.200;2024-03-08T02:02:11;14.90;;;13.45;;
12118;SDS011;6123;48.864;9.200;2024-03-08T02:04:41;16.52;;;14.93;;
12118;SDS011;6123;48.864;9.200;2024-03-08T02:07:07;16.15;;;14.48;;
12118;SDS011;6123;48.864;9.200;2024-03-08T02:09:33;16.60;;;14.93;;
12118;SDS011;6123;48.864;9.200;2024-03-08T02:11:58;17.10;;;15.40;;
12118;SDS011;6123;48.864;9.200;2024-03-08T02:14:24;16.40;;;14.65;;
12118;SDS011;6123;48.864;9.200;2024-03-08T02:16:49;16.10;;;14.40;;
12118;SDS011;6123;48.864;9.200;2024-03-08T02:19:16;15.43;;;13.82;;
12118;SDS011;6123;48.864;9.200;2024-03-08T02:21:41;15.30;;;13.57;;
12118;SDS011;6123;48.864;9.200;2024-03-08T02:24:08;17.15;;;14.90;;
12118;SDS011;6123;48.864;9.200;2024-03-08T02:26:34;15.50;;;13.90;;
12118;SDS011;6123;48.864;9.200;2024-03-08T02:28:59;16.30;;;14.60;;
12118;SDS011;6123;48.864;9.200;2024-03-08T02:31:25;16.13;;;14.52;;
12118;SDS011;6123;48.864;9.200;2024-03-08T02:33:51;16.42;;;14.63;;
12118;SDS011;6123;48.864;9.200;2024-03-08T02:36:16;14.80;;;13.30;;
12118;SDS011;6123;48.864;9.200;2024-03-08T02:38:42;15.30;;;13.73;;
12118;SDS011;6123;48.864;9.200;2024-03-08T02:41:07;15.40;;;13.10;;
12118;SDS011;6123;48.864;9.200;2024-03-08T02:43:33;15.07;;;13.57;;
12118;SDS011;6123;48.864;9.200;2024-03-08T02:45:59;15.35;;;13.65;;
12118;SDS011;6123;48.864;9.200;2024-03-08T02:48:25;15.10;;;13.60;;
12118;SDS011;6123;48.864;9.200;2024-03-08T02:50:50;14.30;;;12.93;;
12118;SDS011;6123;48.864;9.200;2024-03-08T02:53:16;15.07;;;13.48;;
12118;SDS011;6123;48.864;9.200;2024-03-08T02:55:43;14.85;;;13.45;;
12118;SDS011;6123;48.864;9.200;2024-03-08T02:58:09;15.23;;;13.73;;
12118;SDS011;6123;48.864;9.200;2024-03-08T03:00:35;15.00;;;13.60;;
12118;SDS011;6123;48.864;9.200;2024-03-08T03:03:01;14.50;;;13.10;;
12118;SDS011;6123;48.864;9.200;2024-03-08T03:05:28;14.98;;;13.43;;
12118;SDS011;6123;48.864;9.200;2024-03-08T03:07:57;14.32;;;12.82;;
12118;SDS011;6123;48.864;9.200;2024-03-08T03:10:23;15.23;;;13.57;;
12118;SDS011;6123;48.864;9.200;2024-03-08T03:12:49;14.60;;;13.07;;
12118;SDS011;6123;48.864;9.200;2024-03-08T03:15:15;14.70;;;13.20;;
12118;SDS011;6123;48.864;9.200;2024-03-08T03:20:13;14.50;;;13.10;;
12118;SDS011;6123;48.864;9.200;2024-03-08T03:22:40;13.95;;;12.52;;
12118;SDS011;6123;48.864;9.200;2024-03-08T03:25:06;15.60;;;14.00;;
12118;SDS011;6123;48.864;9.200;2024-03-08T03:27:33;14.85;;;13.15;;
12118;SDS011;6123;48.864;9.200;2024-03-08T03:29:58;14.32;;;12.93;;
12118;SDS011;6123;48.864;9.200;2024-03-08T03:32:44;16.00;;;13.60;;
12118;SDS011;6123;48.864;9.200;2024-03-08T03:35:12;13.68;;;12.30;;
12118;SDS011;6123;48.864;9.200;2024-03-08T03:37:38;15.55;;;13.18;;
12118;SDS011;6123;48.864;9.200;2024-03-08T03:40:05;13.60;;;12.15;;
12118;SDS011;6123;48.864;9.200;2024-03-08T03:42:33;15.48;;;13.88;;
12118;SDS011;6123;48.864;9.200;2024-03-08T03:44:59;14.18;;;12.77;;
12118;SDS011;6123;48.864;9.200;2024-03-08T03:47:24;13.95;;;12.55;;
12118;SDS011;6123;48.864;9.200;2024-03-08T03:49:51;13.90;;;12.57;;
12118;SDS011;6123;48.864;9.200;2024-03-08T03:52:19;14.45;;;13.00;;
12118;SDS011;6123;48.864;9.200;2024-03-08T03:54:44;14.65;;;12.95;;
12118;SDS011;6123;48.864;9.200;2024-03-08T03:57:10;14.18;;;12.77;;
12118;SDS011;6123;48.864;9.200;2024-03-08T03:59:37;14.13;;;12.82;;
12118;SDS011;6123;48.864;9.200;2024-03-08T04:02:02;14.73;;;13.23;;
12118;SDS011;6123;48.864;9.200;2024-03-08T04:04:28;14.80;;;13.30;;
12118;SDS011;6123;48.864;9.200;2024-03-08T04:06:54;13.20;;;11.90;;
12118;SDS011;6123;48.864;9.200;2024-03-08T04:09:19;13.07;;;11.77;;
12118;SDS011;6123;48.864;9.200;2024-03-08T04:11:47;13.02;;;11.73;;
12118;SDS011;6123;48.864;9.200;2024-03-08T04:14:13;12.75;;;11.45;;
12118;SDS011;6123;48.864;9.200;2024-03-08T04:16:38;14.23;;;12.32;;
12118;SDS011;6123;48.864;9.200;2024-03-08T04:19:04;13.07;;;11.85;;
12118;SDS011;6123;48.864;9.200;2024-03-08T04:21:30;13.27;;;11.90;;
12118;SDS011;6123;48.864;9.200;2024-03-08T04:23:55;15.25;;;11.77;;
12118;SDS011;6123;48.864;9.200;2024-03-08T04:26:21;13.70;;;12.30;;
12118;SDS011;6123;48.864;9.200;2024-03-08T04:28:46;13.57;;;12.27;;
12118;SDS011;6123;48.864;9.200;2024-03-08T04:31:12;13.77;;;12.48;;
12118;SDS011;6123;48.864;9.200;2024-03-08T04:33:38;13.95;;;12.52;;
12118;SDS011;6123;48.864;9.200;2024-03-08T04:36:04;13.60;;;12.20;;
12118;SDS011;6123;48.864;9.200;2024-03-08T04:38:30;14.13;;;12.63;;
12118;SDS011;6123;48.864;9.200;2024-03-08T04:40:55;13.65;;;12.25;;
12118;SDS011;6123;48.864;9.200;2024-03-08T04:43:22;13.07;;;11.77;;
12118;SDS011;6123;48.864;9.200;2024-03-08T04:45:50;14.07;;;12.55;;
12118;SDS011;6123;48.864;9.200;2024-03-08T04:48:16;14.85;;;13.18;;
12118;SDS011;6123;48.864;9.200;2024-03-08T04:50:41;14.45;;;11.98;;
12118;SDS011;6123;48.864;9.200;2024-03-08T04:53:07;13.48;;;12.07;;
12118;SDS011;6123;48.864;9.200;2024-03-08T04:55:33;14.45;;;12.88;;
12118;SDS011;6123;48.864;9.200;2024-03-08T04:57:59;13.48;;;12.10;;
12118;SDS011;6123;48.864;9.200;2024-03-08T05:00:25;13.25;;;11.88;;
12118;SDS011;6123;48.864;9.200;2024-03-08T05:02:51;13.15;;;11.90;;
12118;SDS011;6123;48.864;9.200;2024-03-08T05:05:18;13.35;;;12.05;;
12118;SDS011;6123;48.864;9.200;2024-03-08T05:07:43;12.32;;;10.95;;
12118;SDS011;6123;48.864;9.200;2024-03-08T05:10:10;13.30;;;11.95;;
12118;SDS011;6123;48.864;9.200;2024-03-08T05:12:36;15.48;;;13.88;;
12118;SDS011;6123;48.864;9.200;2024-03-08T05:15:03;13.15;;;11.85;;
12118;SDS011;6123;48.864;9.200;2024-03-08T05:17:30;13.48;;;12.10;;
12118;SDS011;6123;48.864;9.200;2024-03-08T05:19:55;12.32;;;11.13;;
12118;SDS011;6123;48.864;9.200;2024-03-08T05:22:21;15.90;;;14.50;;
12118;SDS011;6123;48.864;9.200;2024-03-08T05:24:46;13.98;;;12.57;;
12118;SDS011;6123;48.864;9.200;2024-03-08T05:27:12;13.57;;;12.32;;
12118;SDS011;6123;48.864;9.200;2024-03-08T05:29:38;13.32;;;12.02;;
12118;SDS011;6123;48.864;9.200;2024-03-08T05:32:03;13.57;;;12.23;;
12118;SDS011;6123;48.864;9.200;2024-03-08T05:34:29;12.98;;;11.68;;
12118;SDS011;6123;48.864;9.200;2024-03-08T05:36:55;13.80;;;12.45;;
12118;SDS011;6123;48.864;9.200;2024-03-08T05:39:20;13.88;;;12.57;;
12118;SDS011;6123;48.864;9.200;2024-03-08T05:41:46;14.02;;;12.57;;
12118;SDS011;6123;48.864;9.200;2024-03-08T05:44:12;14.10;;;12.63;;
12118;SDS011;6123;48.864;9.200;2024-03-08T05:46:38;14.40;;;13.00;;
12118;SDS011;6123;48.864;9.200;2024-03-08T05:49:05;14.02;;;12.70;;
12118;SDS011;6123;48.864;9.200;2024-03-08T05:51:31;13.50;;;12.10;;
12118;SDS011;6123;48.864;9.200;2024-03-08T05:53:59;13.70;;;12.30;;
12118;SDS011;6123;48.864;9.200;2024-03-08T05:56:28;13.82;;;12.43;;
12118;SDS011;6123;48.864;9.200;2024-03-08T05:58:55;14.55;;;13.00;;
12118;SDS011;6123;48.864;9.200;2024-03-08T06:01:21;14.35;;;12.38;;
12118;SDS011;6123;48.864;9.200;2024-03-08T06:03:47;13.85;;;12.45;;
12118;SDS011;6123;48.864;9.200;2024-03-08T06:06:14;14.68;;;13.18;;
12118;SDS011;6123;48.864;9.200;2024-03-08T06:08:43;15.93;;;14.48;;
12118;SDS011;6123;48.864;9.200;2024-03-08T06:11:09;14.35;;;12.95;;
12118;SDS011;6123;48.864;9.200;2024-03-08T06:13:34;15.55;;;13.80;;
12118;SDS011;6123;48.864;9.200;2024-03-08T06:16:01;14.00;;;12.60;;
12118;SDS011;6123;48.864;9.200;2024-03-08T06:18:29;13.27;;;11.98;;
12118;SDS011;6123;48.864;9.200;2024-03-08T06:20:55;14.55;;;13.05;;
12118;SDS011;6123;48.864;9.200;2024-03-08T06:23:21;14.77;;;13.27;;
12118;SDS011;6123;48.864;9.200;2024-03-08T06:25:47;13.88;;;12.50;;
12118;SDS011;6123;48.864;9.200;2024-03-08T06:28:12;13.68;;;12.38;;
12118;SDS011;6123;48.864;9.200;2024-03-08T06:30:39;14.90;;;13.30;;
12118;SDS011;6123;48.864;9.200;2024-03-08T06:33:05;13.95;;;12.55;;
12118;SDS011;6123;48.864;9.200;2024-03-08T06:35:30;14.68;;;13.18;;
12118;SDS011;6123;48.864;9.200;2024-03-08T06:37:57;14.90;;;13.40;;
12118;SDS011;6123;48.864;9.200;2024-03-08T06:40:23;14.65;;;13.23;;
12118;SDS011;6123;48.864;9.200;2024-03-08T06:42:49;14.23;;;12.82;;
12118;SDS011;6123;48.864;9.200;2024-03-08T06:45:16;15.20;;;13.45;;
12118;SDS011;6123;48.864;9.200;2024-03-08T06:47:45;14.32;;;12.55;;
12118;SDS011;6123;48.864;9.200;2024-03-08T06:50:11;15.82;;;14.18;;
12118;SDS011;6123;48.864;9.200;2024-03-08T06:52:37;15.38;;;12.88;;
12118;SDS011;6123;48.864;9.200;2024-03-08T06:55:03;14.15;;;12.75;;
12118;SDS011;6123;48.864;9.200;2024-03-08T06:57:30;16.05;;;14.35;;
12118;SDS011;6123;48.864;9.200;2024-03-08T06:59:56;16.08;;;14.13;;
12118;SDS011;6123;48.864;9.200;2024-03-08T07:02:22;15.60;;;14.10;;
12118;SDS011;6123;48.864;9.200;2024-03-08T07:04:49;15.07;;;13.60;;
12118;SDS011;6123;48.864;9.200;2024-03-08T07:07:15;15.43;;;13.82;;
12118;SDS011;6123;48.864;9.200;2024-03-08T07:09:41;15.48;;;13.98;;
12118;SDS011;6123;48.864;9.200;2024-03-08T07:12:10;14.05;;;12.65;;
12118;SDS011;6123;48.864;9.200;2024-03-08T07:14:38;15.18;;;13.65;;
12118;SDS011;6123;48.864;9.200;2024-03-08T07:17:07;15.65;;;13.50;;
12118;SDS011;6123;48.864;9.200;2024-03-08T07:19:36;16.02;;;14.48;;
12118;SDS011;6123;48.864;9.200;2024-03-08T07:22:03;15.50;;;14.02;;
12118;SDS011;6123;48.864;9.200;2024-03-08T07:24:29;15.15;;;13.60;;
12118;SDS011;6123;48.864;9.200;2024-03-08T07:27:13;15.88;;;14.27;;
12118;SDS011;6123;48.864;9.200;2024-03-08T07:29:39;15.57;;;13.95;;
12118;SDS011;6123;48.864;9.200;2024-03-08T07:32:04;15.75;;;14.27;;
12118;SDS011;6123;48.864;9.200;2024-03-08T07:34:50;16.90;;;15.20;;
12118;SDS011;6123;48.864;9.200;2024-03-08T07:37:16;16.77;;;15.15;;
12118;SDS011;6123;48.864;9.200;2024-03-08T07:39:42;16.20;;;14.50;;
12118;SDS011;6123;48.864;9.200;2024-03-08T07:42:11;16.48;;;14.77;;
12118;SDS011;6123;48.864;9.200;2024-03-08T07:44:37;15.23;;;13.73;;
12118;SDS011;6123;48.864;9.200;2024-03-08T07:47:03;16.42;;;14.82;;
12118;SDS011;6123;48.864;9.200;2024-03-08T07:49:29;15.15;;;13.65;;
12118;SDS011;6123;48.864;9.200;2024-03-08T07:51:55;16.30;;;14.68;;
12118;SDS011;6123;48.864;9.200;2024-03-08T07:54:21;16.77;;;14.98;;
12118;SDS011;6123;48.864;9.200;2024-03-08T07:56:47;16.35;;;14.75;;
12118;SDS011;6123;48.864;9.200;2024-03-08T07:59:12;15.45;;;13.95;;
12118;SDS011;6123;48.864;9.200;2024-03-08T08:01:38;15.43;;;13.90;;
12118;SDS011;6123;48.864;9.200;2024-03-08T08:04:03;15.85;;;14.35;;
12118;SDS011;6123;48.864;9.200;2024-03-08T08:06:29;15.02;;;13.63;;
12118;SDS011;6123;48.864;9.200;2024-03-08T08:08:58;16.23;;;14.63;;
12118;SDS011;6123;48.864;9.200;2024-03-08T08:11:27;16.75;;;15.07;;
12118;SDS011;6123;48.864;9.200;2024-03-08T08:13:53;15.45;;;14.05;;
12118;SDS011;6123;48.864;9.200;2024-03-08T08:16:19;15.82;;;14.32;;
12118;SDS011;6123;48.864;9.200;2024-03-08T08:18:47;15.77;;;14.23;;
12118;SDS011;6123;48.864;9.200;2024-03-08T08:21:13;14.93;;;13.43;;
12118;SDS011;6123;48.864;9.200;2024-03-08T08:23:39;16.00;;;14.43;;
12118;SDS011;6123;48.864;9.200;2024-03-08T08:26:04;14.65;;;13.18;;
12118;SDS011;6123;48.864;9.200;2024-03-08T08:28:32;15.40;;;13.80;;
12118;SDS011;6123;48.864;9.200;2024-03-08T08:30:58;14.98;;;13.57;;
12118;SDS011;6123;48.864;9.200;2024-03-08T08:33:24;15.80;;;14.23;;
12118;SDS011;6123;48.864;9.200;2024-03-08T08:35:50;14.68;;;13.18;;
12118;SDS011;6123;48.864;9.200;2024-03-08T08:38:18;14.93;;;13.45;;
12118;SDS011;6123;48.864;9.200;2024-03-08T08:40:45;15.07;;;13.55;;
12118;SDS011;6123;48.864;9.200;2024-03-08T08:43:12;15.27;;;13.82;;
12118;SDS011;6123;48.864;9.200;2024-03-08T08:45:38;15.45;;;13.95;;
12118;SDS011;6123;48.864;9.200;2024-03-08T08:48:03;14.88;;;13.40;;
12118;SDS011;6123;48.864;9.200;2024-03-08T08:50:30;14.40;;;13.00;;
12118;SDS011;6123;48.864;9.200;2024-03-08T08:52:56;15.13;;;13.63;;
12118;SDS011;6123;48.864;9.200;2024-03-08T08:55:22;14.77;;;13.32;;
12118;SDS011;6123;48.864;9.200;2024-03-08T08:57:51;14.93;;;13.52;;
12118;SDS011;6123;48.864;9.200;2024-03-08T09:00:17;15.63;;;14.02;;
12118;SDS011;6123;48.864;9.200;2024-03-08T09:02:46;15.50;;;13.82;;
12118;SDS011;6123;48.864;9.200;2024-03-08T09:05:13;14.35;;;12.85;;
12118;SDS011;6123;48.864;9.200;2024-03-08T09:07:42;14.50;;;13.15;;
12118;SDS011;6123;48.864;9.200;2024-03-08T09:10:11;14.20;;;12.73;;
12118;SDS011;6123;48.864;9.200;2024-03-08T09:12:37;14.20;;;12.82;;
12118;SDS011;6123;48.864;9.200;2024-03-08T09:15:04;13.77;;;12.38;;
12118;SDS011;6123;48.864;9.200;2024-03-08T09:17:31;13.75;;;12.38;;
12118;SDS011;6123;48.864;9.200;2024-03-08T09:19:58;14.40;;;13.00;;
12118;SDS011;6123;48.864;9.200;2024-03-08T09:22:24;14.52;;;13.13;;
12118;SDS011;6123;48.864;9.200;2024-03-08T09:24:50;14.20;;;12.80;;
12118;SDS011;6123;48.864;9.200;2024-03-08T09:27:15;14.63;;;13.23;;
12118;SDS011;6123;48.864;9.200;2024-03-08T09:29:41;14.07;;;12.65;;
12118;SDS011;6123;48.864;9.200;2024-03-08T09:32:09;12.85;;;11.63;;
12118;SDS011;6123;48.864;9.200;2024-03-08T09:34:36;13.63;;;12.32;;
12118;SDS011;6123;48.864;9.200;2024-03-08T09:37:02;13.30;;;12.00;;
12118;SDS011;6123;48.864;9.200;2024-03-08T09:39:29;13.13;;;11.93;;
12118;SDS011;6123;48.864;9.200;2024-03-08T09:41:54;13.98;;;12.57;;
12118;SDS011;6123;48.864;9.200;2024-03-08T09:44:20;14.30;;;12.90;;
12118;SDS011;6123;48.864;9.200;2024-03-08T09:46:46;14.18;;;12.77;;
12118;SDS011;6123;48.864;9.200;2024-03-08T09:49:16;14.32;;;12.93;;
12118;SDS011;6123;48.864;9.200;2024-03-08T09:51:41;15.05;;;13.18;;
12118;SDS011;6123;48.864;9.200;2024-03-08T09:54:07;12.93;;;11.73;;
12118;SDS011;6123;48.864;9.200;2024-03-08T09:56:33;14.00;;;12.57;;
12118;SDS011;6123;48.864;9.200;2024-03-08T09:59:00;14.70;;;13.23;;
12118;SDS011;6123;48.864;9.200;2024-03-08T10:01:29;13.63;;;12.32;;
12118;SDS011;6123;48.864;9.200;2024-03-08T10:03:54;14.65;;;13.25;;
12118;SDS011;6123;48.864;9.200;2024-03-08T10:06:23;12.55;;;11.32;;
12118;SDS011;6123;48.864;9.200;2024-03-08T10:08:49;15.35;;;13.75;;
12118;SDS011;6123;48.864;9.200;2024-03-08T10:11:17;14.23;;;12.82;;
12118;SDS011;6123;48.864;9.200;2024-03-08T10:13:44;14.52;;;13.10;;
12118;SDS011;6123;48.864;9.200;2024-03-08T10:16:12;14.75;;;13.27;;
12118;SDS011;6123;48.864;9.200;2024-03-08T10:18:38;13.75;;;12.38;;
12118;SDS011;6123;48.864;9.200;2024-03-08T10:21:07;13.30;;;11.90;;
12118;SDS011;6123;48.864;9.200;2024-03-08T10:23:38;13.52;;;12.23;;
12118;SDS011;6123;48.864;9.200;2024-03-08T10:26:10;14.57;;;13.07;;
12118;SDS011;6123;48.864;9.200;2024-03-08T10:28:44;13.93;;;12.55;;
12118;SDS011;6123;48.864;9.200;2024-03-08T10:31:10;13.13;;;11.82;;
12118;SDS011;6123;48.864;9.200;2024-03-08T10:33:36;14.57;;;13.18;;
12118;SDS011;6123;48.864;9.200;2024-03-08T10:36:06;13.13;;;11.82;;
12118;SDS011;6123;48.864;9.200;2024-03-08T10:38:33;13.35;;;12.05;;
12118;SDS011;6123;48.864;9.200;2024-03-08T10:41:01;13.60;;;12.30;;
12118;SDS011;6123;48.864;9.200;2024-03-08T10:43:31;13.77;;;12.38;;
12118;SDS011;6123;48.864;9.200;2024-03-08T10:49:04;13.35;;;12.05;;
12118;SDS011;6123;48.864;9.200;2024-03-08T10:51:37;13.02;;;11.82;;
12118;SDS011;6123;48.864;9.200;2024-03-08T10:54:03;12.85;;;11.52;;
12118;SDS011;6123;48.864;9.200;2024-03-08T10:56:32;14.48;;;13.07;;
12118;SDS011;6123;48.864;9.200;2024-03-08T10:58:57;13.63;;;12.32;;
12118;SDS011;6123;48.864;9.200;2024-03-08T11:01:23;13.68;;;12.38;;
12118;SDS011;6123;48.864;9.200;2024-03-08T11:03:51;14.45;;;13.05;;
12118;SDS011;6123;48.864;9.200;2024-03-08T11:06:19;13.85;;;12.35;;
12118;SDS011;6123;48.864;9.200;2024-03-08T11:15:11;13.80;;;12.57;;
12118;SDS011;6123;48.864;9.200;2024-03-08T11:20:07;13.48;;;12.07;;
12118;SDS011;6123;48.864;9.200;2024-03-08T11:22:41;13.77;;;12.38;;
12118;SDS011;6123;48.864;9.200;2024-03-08T11:25:35;14.25;;;12.77;;
12118;SDS011;6123;48.864;9.200;2024-03-08T11:30:35;13.68;;;12.38;;
12118;SDS011;6123;48.864;9.200;2024-03-08T11:33:03;13.95;;;12.60;;
12118;SDS011;6123;48.864;9.200;2024-03-08T11:35:29;13.65;;;12.45;;
12118;SDS011;6123;48.864;9.200;2024-03-08T11:37:54;13.70;;;12.40;;
12118;SDS011;6123;48.864;9.200;2024-03-08T11:40:25;14.43;;;13.00;;
12118;SDS011;6123;48.864;9.200;2024-03-08T11:42:51;14.50;;;13.20;;
12118;SDS011;6123;48.864;9.200;2024-03-08T11:45:17;13.40;;;11.98;;
12118;SDS011;6123;48.864;9.200;2024-03-08T11:47:46;14.63;;;13.23;;
12118;SDS011;6123;48.864;9.200;2024-03-08T11:50:12;14.43;;;13.13;;
12118;SDS011;6123;48.864;9.200;2024-03-08T11:52:38;14.60;;;13.10;;
12118;SDS011;6123;48.864;9.200;2024-03-08T11:55:05;15.07;;;13.57;;
12118;SDS011;6123;48.864;9.200;2024-03-08T11:57:31;14.02;;;12.73;;
12118;SDS011;6123;48.864;9.200;2024-03-08T11:59:57;14.88;;;13.48;;
12118;SDS011;6123;48.864;9.200;2024-03-08T12:02:30;16.88;;;13.68;;
12118;SDS011;6123;48.864;9.200;2024-03-08T12:04:57;15.32;;;13.82;;
12118;SDS011;6123;48.864;9.200;2024-03-08T12:07:24;15.35;;;13.85;;
12118;SDS011;6123;48.864;9.200;2024-03-08T12:10:35;15.32;;;13.82;;
12118;SDS011;6123;48.864;9.200;2024-03-08T12:12:50;14.93;;;13.52;;
12118;SDS011;6123;48.864;9.200;2024-03-08T12:15:18;14.30;;;13.00;;
12118;SDS011;6123;48.864;9.200;2024-03-08T12:17:45;14.88;;;13.38;;
12118;SDS011;6123;48.864;9.200;2024-03-08T12:20:20;14.43;;;13.02;;
12118;SDS011;6123;48.864;9.200;2024-03-08T12:22:47;14.82;;;13.43;;
12118;SDS011;6123;48.864;9.200;2024-03-08T12:25:14;14.90;;;13.50;;
12118;SDS011;6123;48.864;9.200;2024-03-08T12:27:41;14.52;;;13.18;;
12118;SDS011;6123;48.864;9.200;2024-03-08T12:30:16;15.15;;;13.75;;
12118;SDS011;6123;48.864;9.200;2024-03-08T12:35:26;15.80;;;14.30;;
12118;SDS011;6123;48.864;9.200;2024-03-08T12:37:53;15.30;;;13.85;;
12118;SDS011;6123;48.864;9.200;2024-03-08T12:40:27;15.98;;;14.48;;
12118;SDS011;6123;48.864;9.200;2024-03-08T12:42:54;16.27;;;14.70;;
12118;SDS011;6123;48.864;9.200;2024-03-08T12:45:21;15.40;;;13.95;;
12118;SDS011;6123;48.864;9.200;2024-03-08T12:47:48;15.63;;;14.18;;
12118;SDS011;6123;48.864;9.200;2024-03-08T12:50:15;15.65;;;14.23;;
12118;SDS011;6123;48.864;9.200;2024-03-08T12:52:42;15.88;;;14.38;;
12118;SDS011;6123;48.864;9.200;2024-03-08T12:55:08;16.48;;;14.88;;
12118;SDS011;6123;48.864;9.200;2024-03-08T12:57:35;15.70;;;14.32;;
12118;SDS011;6123;48.864;9.200;2024-03-08T13:00:02;16.00;;;14.50;;
12118;SDS011;6123;48.864;9.200;2024-03-08T13:02:29;16.50;;;14.73;;
12118;SDS011;6123;48.864;9.200;2024-03-08T13:04:58;15.00;;;13.60;;
12118;SDS011;6123;48.864;9.200;2024-03-08T13:07:24;15.45;;;13.85;;
12118;SDS011;6123;48.864;9.200;2024-03-08T13:09:53;15.05;;;13.55;;
12118;SDS011;6123;48.864;9.200;2024-03-08T13:12:19;15.05;;;13.55;;
12118;SDS011;6123;48.864;9.200;2024-03-08T13:14:45;14.85;;;13.45;;
12118;SDS011;6123;48.864;9.200;2024-03-08T13:17:12;16.13;;;14.57;;
12118;SDS011;6123;48.864;9.200;2024-03-08T13:19:38;14.38;;;13.02;;
12118;SDS011;6123;48.864;9.200;2024-03-08T13:22:04;15.60;;;14.10;;
12118;SDS011;6123;48.864;9.200;2024-03-08T13:24:30;15.07;;;13.68;;
12118;SDS011;6123;48.864;9.200;2024-03-08T13:26:56;15.15;;;13.65;;
12118;SDS011;6123;48.864;9.200;2024-03-08T13:29:22;15.00;;;13.43;;
12118;SDS011;6123;48.864;9.200;2024-03-08T13:31:47;15.52;;;14.13;;
12118;SDS011;6123;48.864;9.200;2024-03-08T13:34:16;15.05;;;13.60;;
12118;SDS011;6123;48.864;9.200;2024-03-08T13:36:42;15.88;;;14.27;;
12118;SDS011;6123;48.864;9.200;2024-03-08T13:39:09;14.10;;;12.70;;
12118;SDS011;6123;48.864;9.200;2024-03-08T13:41:46;14.15;;;12.68;;
12118;SDS011;6123;48.864;9.200;2024-03-08T13:44:11;14.48;;;13.18;;
12118;SDS011;6123;48.864;9.200;2024-03-08T13:46:37;14.63;;;13.32;;
12118;SDS011;6123;48.864;9.200;2024-03-08T13:49:04;14.07;;;12.77;;
12118;SDS011;6123;48.864;9.200;2024-03-08T13:51:32;14.10;;;12.70;;
12118;SDS011;6123;48.864;9.200;2024-03-08T13:53:58;14.75;;;13.35;;
12118;SDS011;6123;48.864;9.200;2024-03-08T13:56:25;15.02;;;13.63;;
12118;SDS011;6123;48.864;9.200;2024-03-08T13:58:51;15.50;;;13.45;;
12118;SDS011;6123;48.864;9.200;2024-03-08T14:01:17;14.90;;;13.50;;
12118;SDS011;6123;48.864;9.200;2024-03-08T14:03:42;14.45;;;13.18;;
12118;SDS011;6123;48.864;9.200;2024-03-08T14:06:08;14.60;;;13.20;;
12118;SDS011;6123;48.864;9.200;2024-03-08T14:08:35;14.52;;;13.23;;
12118;SDS011;6123;48.864;9.200;2024-03-08T14:11:03;13.85;;;12.60;;
12118;SDS011;6123;48.864;9.200;2024-03-08T14:13:40;14.32;;;12.90;;
12118;SDS011;6123;48.864;9.200;2024-03-08T14:16:12;14.38;;;12.98;;
12118;SDS011;6123;48.864;9.200;2024-03-08T14:18:38;14.45;;;13.18;;
12118;SDS011;6123;48.864;9.200;2024-03-08T14:21:04;15.32;;;13.93;;
12118;SDS011;6123;48.864;9.200;2024-03-08T14:23:30;14.48;;;13.13;;
12118;SDS011;6123;48.864;9.200;2024-03-08T14:25:55;15.55;;;14.15;;
12118;SDS011;6123;48.864;9.200;2024-03-08T14:28:24;15.68;;;13.93;;
12118;SDS011;6123;48.864;9.200;2024-03-08T14:30:49;15.50;;;14.10;;
12118;SDS011;6123;48.864;9.200;2024-03-08T14:33:15;14.85;;;13.35;;
12118;SDS011;6123;48.864;9.200;2024-03-08T14:35:41;14.02;;;12.82;;
12118;SDS011;6123;48.864;9.200;2024-03-08T14:38:08;15.27;;;13.80;;
12118;SDS011;6123;48.864;9.200;2024-03-08T14:40:35;13.85;;;12.55;;
12118;SDS011;6123;48.864;9.200;2024-03-08T14:43:01;13.45;;;12.23;;
12118;SDS011;6123;48.864;9.200;2024-03-08T14:45:27;14.45;;;13.07;;
12118;SDS011;6123;48.864;9.200;2024-03-08T14:47:52;14.70;;;13.30;;
12118;SDS011;6123;48.864;9.200;2024-03-08T14:50:20;13.50;;;12.20;;